createdAt,value
2019-04-01T00:01:56.603Z,27.87
2019-04-01T00:04:25.046Z,25.77
2019-04-01T00:06:53.498Z,31.23
2019-04-01T00:09:21.942Z,28.57
2019-04-01T00:11:52.438Z,25.80
2019-04-01T00:14:21.176Z,28.63
2019-04-01T00:16:49.626Z,28.30
2019-04-01T00:19:18.429Z,30.17
2019-04-01T00:21:46.913Z,28.93
2019-04-01T00:24:15.911Z,30.80
2019-04-01T00:26:44.345Z,31.27
2019-04-01T00:29:12.790Z,32.27
2019-04-01T00:31:41.571Z,32.90
2019-04-01T00:34:10.032Z,31.60
2019-04-01T00:36:38.498Z,36.53
2019-04-01T00:39:06.954Z,32.27
2019-04-01T00:41:37.031Z,39.07
2019-04-01T00:44:07.431Z,35.93
2019-04-01T00:46:35.892Z,36.17
2019-04-01T00:49:04.686Z,36.57
2019-04-01T00:51:33.196Z,37.03
2019-04-01T00:54:01.643Z,33.60
2019-04-01T00:56:30.431Z,36.47
2019-04-01T00:58:58.931Z,37.00
2019-04-01T01:01:27.431Z,31.50
2019-04-01T01:03:55.889Z,35.77
2019-04-01T01:06:24.611Z,32.80
2019-04-01T01:08:53.058Z,31.80
2019-04-01T01:11:21.540Z,34.03
2019-04-01T01:13:50.004Z,30.00
2019-04-01T01:16:18.445Z,35.37
2019-04-01T01:18:46.885Z,32.80
2019-04-01T01:21:15.339Z,34.20
2019-04-01T01:23:43.818Z,35.77
2019-04-01T01:26:12.256Z,36.87
2019-04-01T01:28:40.701Z,33.53
2019-04-01T01:31:09.454Z,40.40
2019-04-01T01:33:38.250Z,37.37
2019-04-01T01:36:07.044Z,37.67
2019-04-01T01:38:35.820Z,42.43
2019-04-01T01:41:04.272Z,40.93
2019-04-01T01:43:32.730Z,38.70
2019-04-01T01:46:01.175Z,37.83
2019-04-01T01:48:29.937Z,38.67
2019-04-01T01:50:58.749Z,38.30
2019-04-01T01:53:27.202Z,42.13
2019-04-01T01:55:55.986Z,39.20
2019-04-01T01:58:24.769Z,27.80
2019-04-01T02:00:55.200Z,27.23
2019-04-01T02:03:23.639Z,27.00
2019-04-01T02:05:52.080Z,27.43
2019-04-01T02:08:20.530Z,29.17
2019-04-01T02:10:48.949Z,29.57
2019-04-01T02:13:20.027Z,30.83
2019-04-01T02:15:47.931Z,21.83
2019-04-01T02:18:18.415Z,20.43
2019-04-01T02:20:47.238Z,22.20
2019-04-01T02:23:16.130Z,23.37
2019-04-01T02:25:44.925Z,24.07
2019-04-01T02:28:13.721Z,23.33
2019-04-01T02:30:42.499Z,24.10
2019-04-01T02:33:10.926Z,26.67
2019-04-01T02:35:39.378Z,24.93
2019-04-01T02:38:08.158Z,26.27
2019-04-01T02:40:36.617Z,27.23
2019-04-01T02:43:05.070Z,24.97
2019-04-01T02:45:33.596Z,31.10
2019-04-01T02:48:02.053Z,27.47
2019-04-01T02:50:30.520Z,27.63
2019-04-01T02:52:58.953Z,21.67
2019-04-01T02:55:27.477Z,19.33
2019-04-01T02:57:56.282Z,18.00
2019-04-01T03:00:24.795Z,19.50
2019-04-01T03:02:53.558Z,20.60
2019-04-01T03:05:22.594Z,29.87
2019-04-01T03:07:51.042Z,26.70
2019-04-01T03:10:19.823Z,30.60
2019-04-01T03:12:48.589Z,28.63
2019-04-01T03:15:17.056Z,21.30
2019-04-01T03:17:45.750Z,29.83
2019-04-01T03:20:14.221Z,29.13
2019-04-01T03:22:42.663Z,30.63
2019-04-01T03:25:11.251Z,31.43
2019-04-01T03:27:40.080Z,31.47
2019-04-01T03:30:08.966Z,29.40
2019-04-01T03:32:44.285Z,28.07
2019-04-01T03:35:08.099Z,30.00
2019-04-01T03:37:36.552Z,35.90
2019-04-01T03:40:07.217Z,37.43
2019-04-01T03:42:35.723Z,37.37
2019-04-01T03:45:05.822Z,35.07
2019-04-01T03:47:34.266Z,34.10
2019-04-01T03:50:02.820Z,31.37
2019-04-01T03:52:31.538Z,31.33
2019-04-01T03:55:00.537Z,26.70
2019-04-01T03:57:29.060Z,29.80
2019-04-01T03:59:57.828Z,33.00
2019-04-01T04:02:26.580Z,33.43
2019-04-01T04:04:55.012Z,31.87
2019-04-01T04:07:23.458Z,35.00
2019-04-01T04:09:52.234Z,35.67
2019-04-01T04:12:20.726Z,33.83
2019-04-01T04:14:51.453Z,30.20
2019-04-01T04:17:19.362Z,26.63
2019-04-01T04:19:47.879Z,24.33
2019-04-01T04:22:17.085Z,25.63
2019-04-01T04:24:46.063Z,25.63
2019-04-01T04:27:14.897Z,23.13
2019-04-01T04:29:43.348Z,24.30
2019-04-01T04:32:11.858Z,25.23
2019-04-01T04:34:40.605Z,34.47
2019-04-01T04:37:09.062Z,32.90
2019-04-01T04:39:37.874Z,35.47
2019-04-01T04:42:06.671Z,35.07
2019-04-01T04:44:35.446Z,24.90
2019-04-01T04:47:03.894Z,32.83
2019-04-01T04:49:32.346Z,33.10
2019-04-01T04:52:00.799Z,32.03
2019-04-01T04:54:29.248Z,28.83
2019-04-01T04:56:58.058Z,33.43
2019-04-01T04:59:26.507Z,34.23
2019-04-01T05:01:54.946Z,39.30
2019-04-01T05:04:24.302Z,30.83
2019-04-01T05:06:53.117Z,31.53
2019-04-01T05:09:21.612Z,30.30
2019-04-01T05:11:50.070Z,31.10
2019-04-01T05:14:18.526Z,29.27
2019-04-01T05:16:47.247Z,30.40
2019-04-01T05:19:16.014Z,31.73
2019-04-01T05:21:45.194Z,35.57
2019-04-01T05:24:14.822Z,37.70
2019-04-01T05:26:45.133Z,39.87
2019-04-01T05:29:15.448Z,38.60
2019-04-01T05:31:46.574Z,41.17
2019-04-01T05:34:16.975Z,39.57
2019-04-01T05:36:47.154Z,41.33
2019-04-01T05:39:16.049Z,33.47
2019-04-01T05:41:45.553Z,32.50
2019-04-01T05:44:14.334Z,28.87
2019-04-01T05:46:42.874Z,29.30
2019-04-01T05:49:11.704Z,27.83
2019-04-01T05:51:40.474Z,29.10
2019-04-01T05:54:08.980Z,35.50
2019-04-01T05:56:37.836Z,38.77
2019-04-01T05:59:06.299Z,44.43
2019-04-01T06:01:36.389Z,43.97
2019-04-01T06:04:05.469Z,45.93
2019-04-01T06:06:33.917Z,44.20
2019-04-01T06:09:02.793Z,42.47
2019-04-01T06:11:31.910Z,35.33
2019-04-01T06:14:00.382Z,34.53
2019-04-01T06:16:28.870Z,37.67
2019-04-01T06:18:57.303Z,38.17
2019-04-01T06:21:25.738Z,32.80
2019-04-01T06:23:54.491Z,36.33
2019-04-01T06:26:22.994Z,35.67
2019-04-01T06:28:51.878Z,37.90
2019-04-01T06:31:20.338Z,39.10
2019-04-01T06:33:48.794Z,32.63
2019-04-01T06:36:17.507Z,33.97
2019-04-01T06:38:46.403Z,34.60
2019-04-01T06:41:14.858Z,42.13
2019-04-01T06:43:43.775Z,37.20
2019-04-01T06:46:12.180Z,37.50
2019-04-01T06:48:40.939Z,38.10
2019-04-01T06:51:09.425Z,45.77
2019-04-01T06:53:38.294Z,41.70
2019-04-01T06:56:06.832Z,44.80
2019-04-01T06:58:36.399Z,41.33
2019-04-01T07:01:04.901Z,36.77
2019-04-01T07:03:34.075Z,42.47
2019-04-01T07:06:02.851Z,41.47
2019-04-01T07:08:31.677Z,43.83
2019-04-01T07:11:00.528Z,40.63
2019-04-01T07:13:29.334Z,40.83
2019-04-01T07:15:57.850Z,37.77
2019-04-01T07:18:26.348Z,37.13
2019-04-01T07:20:54.789Z,42.83
2019-04-01T07:23:23.245Z,42.50
2019-04-01T07:25:51.677Z,43.60
2019-04-01T07:28:20.146Z,40.63
2019-04-01T07:30:48.591Z,39.37
2019-04-01T07:33:17.269Z,42.70
2019-04-01T07:35:46.759Z,38.20
2019-04-01T07:38:16.062Z,38.80
2019-04-01T07:40:44.586Z,36.07
2019-04-01T07:43:14.991Z,39.73
2019-04-01T07:45:43.179Z,37.20
2019-04-01T07:48:12.667Z,40.97
2019-04-01T07:50:41.890Z,43.57
2019-04-01T07:53:10.824Z,39.10
2019-04-01T07:55:39.255Z,38.37
2019-04-01T07:58:07.694Z,37.67
2019-04-01T08:00:36.161Z,35.73
2019-04-01T08:03:04.646Z,37.40
2019-04-01T08:05:34.800Z,35.97
2019-04-01T08:08:03.249Z,41.67
2019-04-01T08:10:31.713Z,38.47
2019-04-01T08:13:00.146Z,35.97
2019-04-01T08:15:28.892Z,40.10
2019-04-01T08:17:57.318Z,38.63
2019-04-01T08:20:27.170Z,36.03
2019-04-01T08:22:55.936Z,37.97
2019-04-01T08:25:26.823Z,36.97
2019-04-01T08:27:55.695Z,41.87
2019-04-01T08:30:24.121Z,35.20
2019-04-01T08:32:53.628Z,34.10
2019-04-01T08:35:23.593Z,41.53
2019-04-01T08:37:52.046Z,32.67
2019-04-01T08:40:20.955Z,37.87
2019-04-01T08:42:49.742Z,35.20
2019-04-01T08:45:18.538Z,35.00
2019-04-01T08:47:46.957Z,36.40
2019-04-01T08:50:16.049Z,36.37
2019-04-01T08:52:44.777Z,32.77
2019-04-01T08:55:13.286Z,33.17
2019-04-01T08:57:41.800Z,32.63
2019-04-01T09:00:11.085Z,34.03
2019-04-01T09:02:39.615Z,30.43
2019-04-01T09:05:08.175Z,33.33
2019-04-01T09:07:36.990Z,35.87
2019-04-01T09:10:07.081Z,33.50
2019-04-01T09:12:35.916Z,34.40
2019-04-01T09:15:05.714Z,36.97
2019-04-01T09:17:34.487Z,35.13
2019-04-01T09:20:02.935Z,34.77
2019-04-01T09:22:31.350Z,33.73
2019-04-01T09:25:00.374Z,31.87
2019-04-01T09:27:29.074Z,32.00
2019-04-01T09:29:57.544Z,32.63
2019-04-01T09:32:25.981Z,34.97
2019-04-01T09:34:56.425Z,30.67
2019-04-01T09:37:24.930Z,30.77
2019-04-01T09:39:53.456Z,34.63
2019-04-01T09:42:22.259Z,29.43
2019-04-01T09:44:50.728Z,30.43
2019-04-01T09:47:21.106Z,29.73
2019-04-01T09:49:49.562Z,30.80
2019-04-01T09:52:18.006Z,31.47
2019-04-01T09:54:46.446Z,32.23
2019-04-01T09:57:18.043Z,29.07
2019-04-01T09:59:45.162Z,31.80
2019-04-01T10:02:13.607Z,31.03
2019-04-01T10:04:42.079Z,35.10
2019-04-01T10:07:20.455Z,28.20
2019-04-01T10:09:48.902Z,27.87
2019-04-01T10:12:30.387Z,30.27
2019-04-01T10:15:01.268Z,28.17
2019-04-01T10:17:29.748Z,26.63
2019-04-01T10:20:00.909Z,30.53
2019-04-01T10:22:30.625Z,34.07
2019-04-01T10:24:59.070Z,28.90
2019-04-01T10:27:27.518Z,28.73
2019-04-01T10:29:56.002Z,29.90
2019-04-01T10:32:24.726Z,31.00
2019-04-01T10:34:53.205Z,29.53
2019-04-01T10:37:21.686Z,31.93
2019-04-01T10:39:50.481Z,28.40
2019-04-01T10:42:19.268Z,34.17
2019-04-01T10:44:47.701Z,28.53
2019-04-01T10:47:19.481Z,26.97
2019-04-01T10:49:48.079Z,27.90
2019-04-01T10:52:16.901Z,27.93
2019-04-01T10:54:45.386Z,30.60
2019-04-01T10:57:13.851Z,31.70
2019-04-01T10:59:42.308Z,26.77
2019-04-01T11:02:10.780Z,30.47
2019-04-01T11:04:39.316Z,30.47
2019-04-01T11:07:07.845Z,27.00
2019-04-01T11:09:38.622Z,28.73
2019-04-01T11:12:07.179Z,26.23
2019-04-01T11:14:35.941Z,26.23
2019-04-01T11:17:04.736Z,28.37
2019-04-01T11:19:33.322Z,27.33
2019-04-01T11:22:01.778Z,25.60
2019-04-01T11:24:30.222Z,28.80
2019-04-01T11:26:58.668Z,28.27
2019-04-01T11:29:27.124Z,27.97
2019-04-01T11:31:55.633Z,25.67
2019-04-01T11:34:24.205Z,27.13
2019-04-01T11:36:53.157Z,30.30
2019-04-01T11:39:22.851Z,29.93
2019-04-01T11:41:51.355Z,24.40
2019-04-01T11:44:20.190Z,23.90
2019-04-01T11:46:48.755Z,21.93
2019-04-01T11:49:17.305Z,25.80
2019-04-01T11:51:46.145Z,23.53
2019-04-01T11:54:14.701Z,24.17
2019-04-01T11:56:48.959Z,23.97
2019-04-01T11:59:18.443Z,22.03
2019-04-01T12:01:47.511Z,23.87
2019-04-01T12:04:19.874Z,23.73
2019-04-01T12:06:48.350Z,22.53
2019-04-01T12:09:20.575Z,21.93
2019-04-01T12:11:50.592Z,24.20
2019-04-01T12:14:19.100Z,21.83
2019-04-01T12:16:50.315Z,21.53
2019-04-01T12:19:20.277Z,23.93
2019-04-01T12:21:49.168Z,20.73
2019-04-01T12:24:17.678Z,22.97
2019-04-01T12:26:47.417Z,22.20
2019-04-01T12:29:16.614Z,21.87
2019-04-01T12:31:45.057Z,20.27
2019-04-01T12:34:13.930Z,19.63
2019-04-01T12:36:42.380Z,21.80
2019-04-01T12:39:11.218Z,20.43
2019-04-01T12:41:39.985Z,23.67
2019-04-01T12:44:08.434Z,18.87
2019-04-01T12:46:36.957Z,18.77
2019-04-01T12:49:11.447Z,20.83
2019-04-01T12:51:39.943Z,22.67
2019-04-01T12:54:08.850Z,22.07
2019-04-01T12:56:37.703Z,22.30
2019-04-01T12:59:06.174Z,20.00
2019-04-01T13:01:34.810Z,19.17
2019-04-01T13:04:04.415Z,22.47
2019-04-01T13:06:33.569Z,19.50
2019-04-01T13:09:02.011Z,20.13
2019-04-01T13:11:30.754Z,19.13
2019-04-01T13:13:59.272Z,19.17
2019-04-01T13:16:28.002Z,23.33
2019-04-01T13:18:56.468Z,18.07
2019-04-01T13:21:25.269Z,18.80
2019-04-01T13:23:53.732Z,21.13
2019-04-01T13:26:22.172Z,16.60
2019-04-01T13:28:50.617Z,21.47
2019-04-01T13:31:19.382Z,16.60
2019-04-01T13:33:48.189Z,19.10
2019-04-01T13:36:16.966Z,20.27
2019-04-01T13:38:45.698Z,18.50
2019-04-01T13:41:15.598Z,19.43
2019-04-01T13:43:44.485Z,18.00
2019-04-01T13:46:12.943Z,19.37
2019-04-01T13:48:56.617Z,17.97
2019-04-01T13:51:11.897Z,16.17
2019-04-01T13:53:40.807Z,19.87
2019-04-01T13:56:10.402Z,19.17
2019-04-01T13:58:39.696Z,19.70
2019-04-01T14:01:08.419Z,18.00
2019-04-01T14:03:36.967Z,18.97
2019-04-01T14:06:05.408Z,21.23
2019-04-01T14:08:33.857Z,16.67
2019-04-01T14:11:05.711Z,21.67
2019-04-01T14:13:32.470Z,17.60
2019-04-01T14:16:01.258Z,18.80
2019-04-01T14:18:29.720Z,17.87
2019-04-01T14:20:58.162Z,18.80
2019-04-01T14:23:26.747Z,19.53
2019-04-01T14:26:07.881Z,18.37
2019-04-01T14:28:42.341Z,19.77
2019-04-01T14:31:10.787Z,15.73
2019-04-01T14:33:39.541Z,19.70
2019-04-01T14:36:08.341Z,16.83
2019-04-01T14:38:36.802Z,16.90
2019-04-01T14:41:05.357Z,15.20
2019-04-01T14:43:33.811Z,16.73
2019-04-01T14:46:02.581Z,18.97
2019-04-01T14:48:31.020Z,18.07
2019-04-01T14:50:59.467Z,18.50
2019-04-01T14:53:28.270Z,17.03
2019-04-01T14:55:56.718Z,18.17
2019-04-01T14:58:25.182Z,18.77
2019-04-01T15:00:53.655Z,18.33
2019-04-01T15:03:22.424Z,19.40
2019-04-01T15:05:50.891Z,19.40
2019-04-01T15:08:19.771Z,16.47
2019-04-01T15:10:48.404Z,16.03
2019-04-01T15:13:16.911Z,17.33
2019-04-01T15:15:54.685Z,17.33
2019-04-01T15:18:42.131Z,14.87
2019-04-01T15:21:11.843Z,16.03
2019-04-01T15:23:40.781Z,14.90
2019-04-01T15:26:09.441Z,16.93
2019-04-01T15:28:37.939Z,16.27
2019-04-01T15:31:07.501Z,21.63
2019-04-01T15:33:36.113Z,18.47
2019-04-01T15:36:04.906Z,15.47
2019-04-01T15:38:33.324Z,16.50
2019-04-01T15:41:01.803Z,15.43
2019-04-01T15:43:30.758Z,22.27
2019-04-01T15:45:59.213Z,17.43
2019-04-01T15:51:26.945Z,16.30
2019-04-01T15:53:55.721Z,16.90
2019-04-01T15:56:25.837Z,15.33
2019-04-01T15:58:54.711Z,14.40
2019-04-01T16:01:23.340Z,14.93
2019-04-01T16:03:51.805Z,15.13
2019-04-01T16:06:21.862Z,16.43
2019-04-01T16:08:53.197Z,16.83
2019-04-01T16:11:27.339Z,20.73
2019-04-01T16:14:01.889Z,21.67
2019-04-01T16:16:30.515Z,15.30
2019-04-01T16:19:00.055Z,14.00
2019-04-01T16:21:31.317Z,17.07
2019-04-01T16:23:58.834Z,17.07
2019-04-01T16:26:27.377Z,15.00
2019-04-01T16:28:55.826Z,14.47
2019-04-01T16:31:24.269Z,14.60
2019-04-01T16:33:53.006Z,18.10
2019-04-01T16:36:21.485Z,15.77
2019-04-01T16:38:49.941Z,14.77
2019-04-01T16:41:18.763Z,15.80
2019-04-01T16:43:47.532Z,15.53
2019-04-01T16:46:16.020Z,16.77
2019-04-01T16:48:46.486Z,13.80
2019-04-01T16:51:15.060Z,14.73
2019-04-01T16:53:44.476Z,14.50
2019-04-01T16:56:13.265Z,14.00
2019-04-01T16:58:41.752Z,15.03
2019-04-01T17:01:10.762Z,15.53
2019-04-01T17:03:39.285Z,14.43
2019-04-01T17:06:07.783Z,15.53
2019-04-01T17:08:36.530Z,14.23
2019-04-01T17:11:05.425Z,14.93
2019-04-01T17:13:33.866Z,17.73
2019-04-01T17:16:02.350Z,13.27
2019-04-01T17:18:31.761Z,17.00
2019-04-01T17:21:00.226Z,13.97
2019-04-01T17:23:30.590Z,15.43
2019-04-01T17:25:59.398Z,15.33
2019-04-01T17:28:27.895Z,13.73
2019-04-01T17:30:56.742Z,14.23
2019-04-01T17:33:25.718Z,14.33
2019-04-01T17:35:54.539Z,14.90
2019-04-01T17:38:23.140Z,15.53
2019-04-01T17:40:51.637Z,13.80
2019-04-01T17:43:22.977Z,14.63
2019-04-01T17:45:50.610Z,15.93
2019-04-01T17:48:19.103Z,15.87
2019-04-01T17:50:47.661Z,15.60
2019-04-01T17:53:16.102Z,15.97
2019-04-01T17:55:45.735Z,19.97
2019-04-01T17:58:15.497Z,15.07
2019-04-01T18:00:46.367Z,13.93
2019-04-01T18:03:14.835Z,15.73
2019-04-01T18:05:43.646Z,12.63
2019-04-01T18:08:12.494Z,16.10
2019-04-01T18:10:40.962Z,16.90
2019-04-01T18:13:09.410Z,16.43
2019-04-01T18:15:37.861Z,16.90
2019-04-01T18:18:06.372Z,15.20
2019-04-01T18:20:34.834Z,17.10
2019-04-01T18:23:03.608Z,16.53
2019-04-01T18:25:32.066Z,17.70
2019-04-01T18:28:00.587Z,16.40
2019-04-01T18:30:29.457Z,15.63
2019-04-01T18:32:57.909Z,18.37
2019-04-01T18:35:26.338Z,12.83
2019-04-01T18:37:54.836Z,14.40
2019-04-01T18:40:32.446Z,13.90
2019-04-01T18:42:53.806Z,15.40
2019-04-01T18:45:22.416Z,16.60
2019-04-01T18:47:51.184Z,16.20
2019-04-01T18:50:19.959Z,14.90
2019-04-01T18:52:48.742Z,15.77
2019-04-01T18:55:17.538Z,13.93
2019-04-01T18:57:46.318Z,16.37
2019-04-01T19:00:15.301Z,17.07
2019-04-01T19:02:43.747Z,18.70
2019-04-01T19:05:12.642Z,13.87
2019-04-01T19:07:41.462Z,17.30
2019-04-01T19:10:11.810Z,14.90
2019-04-01T19:12:40.402Z,15.77
2019-04-01T19:15:10.186Z,16.20
2019-04-01T19:17:39.326Z,17.67
2019-04-01T19:20:08.105Z,17.90
2019-04-01T19:22:36.571Z,15.53
2019-04-01T19:25:08.862Z,20.70
2019-04-01T19:27:37.325Z,15.07
2019-04-01T19:30:07.014Z,12.93
2019-04-01T19:32:35.545Z,14.20
2019-04-01T19:35:05.524Z,14.17
2019-04-01T19:37:39.769Z,14.33
2019-04-01T19:40:09.238Z,14.07
2019-04-01T19:42:39.683Z,13.80
2019-04-01T19:45:11.160Z,13.63
2019-04-01T19:47:40.541Z,22.70
2019-04-01T19:50:09.857Z,19.17
2019-04-01T19:52:38.690Z,23.20
2019-04-01T19:55:07.564Z,19.37
2019-04-01T19:57:36.011Z,20.97
2019-04-01T20:00:07.842Z,22.23
2019-04-01T20:02:36.310Z,19.10
2019-04-01T20:05:06.900Z,16.93
2019-04-01T20:07:35.346Z,19.07
2019-04-01T20:10:05.464Z,16.50
2019-04-01T20:12:33.958Z,16.57
2019-04-01T20:15:02.388Z,16.27
2019-04-01T20:17:31.161Z,17.07
2019-04-01T20:19:59.608Z,18.10
2019-04-01T20:22:28.041Z,16.07
2019-04-01T20:24:56.510Z,15.10
2019-04-01T20:27:24.936Z,18.63
2019-04-01T20:29:53.382Z,19.23
2019-04-01T20:32:22.134Z,18.27
2019-04-01T20:34:56.752Z,16.93
2019-04-01T20:37:21.089Z,16.40
2019-04-01T20:39:49.925Z,17.57
2019-04-01T20:42:18.345Z,15.40
2019-04-01T20:44:46.849Z,22.10
2019-04-01T20:47:15.303Z,15.90
2019-04-01T20:49:44.154Z,14.90
2019-04-01T20:52:12.934Z,19.60
2019-04-01T20:54:41.722Z,21.27
2019-04-01T20:57:10.434Z,21.87
2019-04-01T20:59:39.055Z,23.17
2019-04-01T21:02:07.829Z,21.80
2019-04-01T21:04:46.602Z,19.63
2019-04-01T21:07:15.014Z,16.97
2019-04-01T21:09:44.234Z,22.57
2019-04-01T21:12:14.082Z,18.07
2019-04-01T21:14:42.533Z,17.80
2019-04-01T21:17:10.971Z,16.03
2019-04-01T21:19:39.440Z,21.20
2019-04-01T21:22:08.487Z,21.03
2019-04-01T21:24:37.036Z,17.90
2019-04-01T21:27:05.630Z,17.97
2019-04-01T21:29:34.363Z,18.60
2019-04-01T21:32:03.166Z,19.57
2019-04-01T21:34:31.631Z,16.03
2019-04-01T21:37:00.129Z,17.03
2019-04-01T21:39:30.045Z,20.53
2019-04-01T21:41:58.728Z,17.00
2019-04-01T21:44:27.646Z,17.67
2019-04-01T21:46:56.081Z,17.83
2019-04-01T21:49:24.553Z,19.07
2019-04-01T21:51:52.980Z,18.03
2019-04-01T21:54:21.724Z,14.80
2019-04-01T21:56:51.930Z,16.43
2019-04-01T21:59:20.546Z,16.63
2019-04-01T22:01:48.974Z,16.87
2019-04-01T22:04:19.134Z,14.93
2019-04-01T22:06:47.586Z,15.60
2019-04-01T22:09:16.624Z,14.97
2019-04-01T22:11:45.491Z,15.50
2019-04-01T22:14:13.950Z,15.70
2019-04-01T22:16:42.383Z,17.30
2019-04-01T22:19:11.298Z,17.13
2019-04-01T22:21:40.789Z,17.83
2019-04-01T22:24:09.825Z,22.03
2019-04-01T22:26:38.349Z,20.00
2019-04-01T22:29:07.134Z,17.93
2019-04-01T22:31:35.881Z,17.13
2019-04-01T22:34:04.327Z,17.63
2019-04-01T22:36:32.753Z,16.93
2019-04-01T22:39:01.218Z,17.87
2019-04-01T22:41:30.039Z,17.47
2019-04-01T22:43:58.538Z,17.10
2019-04-01T22:46:27.276Z,17.03
2019-04-01T22:48:56.060Z,20.03
2019-04-01T22:51:24.498Z,17.27
2019-04-01T22:53:53.322Z,17.63
2019-04-01T22:56:22.126Z,20.73
2019-04-01T22:58:51.262Z,18.83
2019-04-01T23:01:19.981Z,18.47
2019-04-01T23:03:48.442Z,21.93
2019-04-01T23:06:16.894Z,19.30
2019-04-01T23:08:45.755Z,20.83
2019-04-01T23:11:14.235Z,20.53
2019-04-01T23:13:42.668Z,19.40
2019-04-01T23:16:12.126Z,18.40
2019-04-01T23:18:41.704Z,19.60
2019-04-01T23:21:10.510Z,17.97
2019-04-01T23:23:39.286Z,17.37
2019-04-01T23:26:07.764Z,18.23
2019-04-01T23:28:36.544Z,18.27
2019-04-01T23:31:05.357Z,17.93
2019-04-01T23:33:34.118Z,16.80
2019-04-01T23:36:02.561Z,21.83
2019-04-01T23:38:31.002Z,19.97
2019-04-01T23:41:01.073Z,19.17
2019-04-01T23:43:29.605Z,18.30
2019-04-01T23:45:58.078Z,22.30
2019-04-01T23:48:26.545Z,19.07
2019-04-01T23:50:55.344Z,19.47
2019-04-01T23:53:24.109Z,19.27
2019-04-01T23:55:52.894Z,21.07
2019-04-01T23:58:22.401Z,20.03
